Time;durP1;ratioP1;P1;durP2;ratioP2;P2;SDS_P1;SDS_P2;PMS_P1;PMS_P2;Temp;Humidity;BMP_temperature;BMP_pressure;BME280_temperature;BME280_humidity;BME280_pressure;Samples;Min_cycle;Max_cycle;Signal;HPM_P1;HPM_P2
2023/04/28 00:00:30;;;;;;;4.00;2.90;;;;;;;12.80;47.93;98806.22;5123875;27;39779;-77
2023/04/28 00:02:57;;;;;;;4.03;2.77;;;;;;;12.80;48.21;98800.91;5138789;27;41566;-76
2023/04/28 00:05:26;;;;;;;2.60;2.40;;;;;;;12.80;48.30;98800.91;5136948;27;41965;-76
2023/04/28 00:07:54;;;;;;;4.60;3.77;;;;;;;12.71;49.13;98764.38;5120004;27;41829;-74
2023/04/28 00:10:22;;;;;;;4.50;3.30;;;;;;;12.83;49.63;98779.44;5155551;27;40886;-75
2023/04/28 00:12:49;;;;;;;3.13;2.83;;;;;;;12.83;49.21;98780.28;5120079;27;40675;-76
2023/04/28 00:15:17;;;;;;;3.53;3.23;;;;;;;12.84;49.67;98773.16;5119747;27;42765;-77
2023/04/28 00:17:45;;;;;;;3.83;3.23;;;;;;;12.83;49.15;98766.16;5155384;27;43265;-76
2023/04/28 00:20:13;;;;;;;5.90;3.73;;;;;;;12.82;49.41;98775.94;5137357;27;41878;-78
2023/04/28 00:22:41;;;;;;;3.87;3.43;;;;;;;12.80;49.26;98774.34;5137143;27;40239;-77
2023/04/28 00:25:09;;;;;;;3.50;3.20;;;;;;;12.66;49.39;98743.44;5137103;27;43130;-77
2023/04/28 00:27:37;;;;;;;4.00;3.60;;;;;;;12.77;49.42;98763.91;5119633;27;42257;-75
2023/04/28 00:30:06;;;;;;;5.03;3.60;;;;;;;12.62;49.80;98735.81;5137090;27;41599;-74
2023/04/28 00:32:34;;;;;;;5.03;3.70;;;;;;;12.67;49.66;98762.91;5136639;27;41801;-78
2023/04/28 00:35:02;;;;;;;3.90;3.50;;;;;;;12.61;49.95;98748.22;5136832;27;41889;-79
2023/04/28 00:37:29;;;;;;;4.40;3.80;;;;;;;12.57;49.77;98747.63;5136734;27;43301;-76
2023/04/28 00:39:58;;;;;;;3.40;3.10;;;;;;;12.54;49.87;98750.50;5136894;27;42061;-78
2023/04/28 00:42:26;;;;;;;3.23;2.87;;;;;;;12.51;49.69;98753.38;5136302;27;41925;-77
2023/04/28 00:44:53;;;;;;;5.00;2.83;;;;;;;12.50;49.64;98745.50;5136135;27;42583;-78
2023/04/28 00:47:22;;;;;;;4.53;3.03;;;;;;;12.49;49.64;98743.81;5119530;27;41545;-77
2023/04/28 00:49:49;;;;;;;3.70;3.07;;;;;;;12.49;49.38;98739.34;5136699;27;40879;-78
2023/04/28 00:52:17;;;;;;;2.97;2.67;;;;;;;12.49;49.89;98738.50;5154913;27;42981;-75
2023/04/28 00:54:46;;;;;;;3.03;2.63;;;;;;;12.40;50.00;98729.41;5136933;27;42782;-75
2023/04/28 00:57:15;;;;;;;4.23;3.47;;;;;;;12.46;50.23;98731.63;5119118;27;42734;-77
2023/04/28 00:59:43;;;;;;;4.93;3.17;;;;;;;12.46;50.23;98739.59;5136726;27;41909;-77
2023/04/28 01:02:16;;;;;;;3.83;3.10;;;;;;;12.46;49.94;98734.28;5135850;27;41760;-76
2023/04/28 01:09:28;;;;;;;3.43;3.13;;;;;;;12.43;50.52;98717.72;5151948;27;43026;-77
2023/04/28 01:11:57;;;;;;;4.40;3.33;;;;;;;12.43;50.30;98713.25;5118676;27;39989;-75
2023/04/28 01:14:56;;;;;;;7.67;3.57;;;;;;;12.44;51.09;98706.13;5135885;27;41695;-74
2023/04/28 01:17:24;;;;;;;6.70;3.67;;;;;;;12.45;50.90;98713.97;5118150;27;42840;-78
2023/04/28 01:19:52;;;;;;;4.27;3.50;;;;;;;12.46;50.97;98713.03;5119222;27;41495;-77
2023/04/28 01:22:20;;;;;;;5.93;3.67;;;;;;;12.44;50.92;98720.25;5118744;27;40939;-75
2023/04/28 01:24:49;;;;;;;4.73;3.20;;;;;;;12.47;50.62;98720.03;5154740;27;41838;-74
2023/04/28 01:27:17;;;;;;;5.63;3.80;;;;;;;12.48;50.88;98716.44;5118800;27;41650;-75
2023/04/28 01:29:45;;;;;;;5.13;4.30;;;;;;;12.50;51.88;98698.53;5136831;27;42709;-75
2023/04/28 01:32:13;;;;;;;5.33;4.47;;;;;;;12.51;52.13;98700.25;5136183;27;41955;-79
2023/04/28 01:34:41;;;;;;;4.77;4.20;;;;;;;12.52;51.64;98696.63;5136239;27;41799;-77
2023/04/28 01:37:09;;;;;;;4.93;4.30;;;;;;;12.53;51.86;98690.34;5135514;27;43083;-75
2023/04/28 01:39:38;;;;;;;5.20;4.67;;;;;;;12.53;51.50;98695.69;5136110;27;42379;-77
2023/04/28 01:42:07;;;;;;;5.53;3.80;;;;;;;12.55;51.97;98691.09;5118501;27;39924;-80
2023/04/28 01:44:35;;;;;;;5.10;4.43;;;;;;;12.52;52.67;98680.69;5118553;27;40988;-77
2023/04/28 01:47:02;;;;;;;6.83;5.13;;;;;;;12.48;53.41;98673.94;5135602;27;42621;-77
2023/04/28 01:49:31;;;;;;;6.67;5.07;;;;;;;12.47;53.29;98676.69;5118658;27;41218;-76
2023/04/28 01:51:59;;;;;;;6.77;5.47;;;;;;;12.45;53.50;98667.97;5135758;27;41145;-75
2023/04/28 01:54:26;;;;;;;5.57;4.90;;;;;;;12.43;53.51;98667.25;5136084;27;42563;-78
2023/04/28 01:56:54;;;;;;;5.37;4.87;;;;;;;12.40;53.28;98662.16;5135150;27;43147;-79
2023/04/28 01:59:24;;;;;;;4.67;4.17;;;;;;;12.39;52.99;98671.94;5118486;27;42516;-78
2023/04/28 02:01:52;;;;;;;5.63;3.87;;;;;;;12.40;52.49;98673.63;5118179;27;39809;-75
2023/04/28 02:04:20;;;;;;;3.50;3.20;;;;;;;12.41;52.31;98670.00;5135529;27;41733;-77
2023/04/28 02:06:48;;;;;;;4.60;3.80;;;;;;;12.41;52.43;98664.69;5118355;27;42739;-77
2023/04/28 02:09:15;;;;;;;5.57;3.50;;;;;;;12.42;52.95;98666.41;5118503;27;41444;-76
2023/04/28 02:11:43;;;;;;;5.17;3.60;;;;;;;12.42;52.39;98669.06;5117719;27;41555;-78
2023/04/28 02:14:11;;;;;;;4.83;4.30;;;;;;;12.43;52.44;98670.75;5136346;27;42755;-76
2023/04/28 02:16:41;;;;;;;4.23;3.47;;;;;;;12.46;52.03;98667.03;5121001;27;41778;-77
2023/04/28 02:19:08;;;;;;;3.50;3.23;;;;;;;12.46;51.88;98654.59;5118973;27;42235;-75
2023/04/28 02:21:36;;;;;;;3.97;3.30;;;;;;;12.47;51.83;98655.44;5134574;27;39832;-75
2023/04/28 02:24:05;;;;;;;4.27;3.53;;;;;;;12.48;52.11;98652.69;5117754;27;40743;-78
2023/04/28 02:26:34;;;;;;;4.30;3.23;;;;;;;12.46;52.61;98654.59;5117830;27;41606;-75
2023/04/28 02:29:03;;;;;;;3.60;3.30;;;;;;;12.38;52.84;98643.66;5153665;27;42391;-76
2023/04/28 02:31:33;;;;;;;3.57;3.27;;;;;;;12.43;52.66;98651.31;5117548;27;39846;-77
2023/04/28 02:34:02;;;;;;;3.73;3.23;;;;;;;12.42;52.86;98646.97;5134988;27;42678;-79
2023/04/28 02:36:30;;;;;;;4.00;3.40;;;;;;;12.40;52.42;98644.41;5134775;27;42946;-76
2023/04/28 02:38:58;;;;;;;3.90;3.60;;;;;;;12.40;52.24;98643.56;5135097;27;41301;-79
2023/04/28 02:41:29;;;;;;;4.83;3.40;;;;;;;12.40;52.25;98641.75;5134666;27;42143;-75
2023/04/28 02:43:57;;;;;;;4.17;3.30;;;;;;;12.40;52.60;98639.09;5153234;27;42635;-77
2023/04/28 02:46:25;;;;;;;3.87;3.57;;;;;;;12.36;52.30;98620.88;5117493;27;41347;-76
2023/04/28 02:48:53;;;;;;;3.80;3.50;;;;;;;12.39;52.07;98636.53;5117742;27;42360;-76
2023/04/28 02:51:22;;;;;;;3.67;3.33;;;;;;;12.38;52.35;98627.72;5134716;27;40980;-78
2023/04/28 02:53:50;;;;;;;4.20;3.63;;;;;;;12.41;52.35;98629.31;5117355;27;40694;-76
2023/04/28 02:56:18;;;;;;;4.23;3.87;;;;;;;12.41;52.77;98624.84;5117427;27;41514;-75
2023/04/28 02:58:46;;;;;;;5.23;4.57;;;;;;;12.42;52.98;98618.59;5118421;27;40904;-78
2023/04/28 03:01:14;;;;;;;4.70;4.30;;;;;;;12.42;53.56;98612.44;5120166;27;39873;-78
2023/04/28 03:03:41;;;;;;;7.33;5.23;;;;;;;12.36;54.30;98603.13;5137968;27;41722;-76
2023/04/28 03:06:09;;;;;;;5.20;4.70;;;;;;;12.42;54.89;98600.00;5137038;27;42967;-76
2023/04/28 03:08:38;;;;;;;4.97;4.47;;;;;;;12.42;54.39;98615.94;5140887;27;42458;-78
2023/04/28 03:11:07;;;;;;;6.87;4.80;;;;;;;12.41;54.63;98608.94;5139836;27;40573;-77
2023/04/28 03:13:36;;;;;;;6.10;5.10;;;;;;;12.29;55.26;98580.63;5139993;27;41999;-76
2023/04/28 03:16:04;;;;;;;5.73;4.70;;;;;;;12.38;55.26;98601.19;5121595;27;42046;-78
2023/04/28 03:18:32;;;;;;;5.10;4.60;;;;;;;12.40;54.74;98606.38;5120788;27;41734;-75
2023/04/28 03:21:00;;;;;;;6.03;4.57;;;;;;;12.39;54.83;98607.34;5120590;27;40407;-79
2023/04/28 03:23:29;;;;;;;4.73;4.20;;;;;;;12.39;54.58;98604.69;5120778;27;42280;-77
2023/04/28 03:25:58;;;;;;;6.87;3.73;;;;;;;12.32;54.66;98588.38;5120097;27;41427;-77
2023/04/28 03:28:28;;;;;;;4.80;4.27;;;;;;;12.39;54.22;98599.38;5137607;27;43251;-77
2023/04/28 03:30:56;;;;;;;4.50;4.10;;;;;;;12.43;54.25;98616.78;5137559;27;41065;-76
2023/04/28 03:33:24;;;;;;;4.93;3.90;;;;;;;12.31;54.05;98591.97;5137444;27;41945;-76
2023/04/28 03:35:54;;;;;;;4.60;4.20;;;;;;;12.44;54.18;98608.72;5120046;27;42768;-75
2023/04/28 03:38:22;;;;;;;4.23;3.83;;;;;;;12.39;54.11;98594.91;5120156;27;41135;-76
2023/04/28 03:40:50;;;;;;;4.93;3.80;;;;;;;12.48;53.72;98609.34;5120514;27;39918;-76
2023/04/28 03:43:37;;;;;;;4.97;3.90;;;;;;;12.44;53.76;98607.84;5137630;27;40806;-77
2023/04/28 03:46:28;;;;;;;3.50;3.20;;;;;;;12.36;54.02;98608.44;5136105;27;42735;-76
2023/04/28 03:48:56;;;;;;;4.10;3.40;;;;;;;12.24;54.32;98602.19;5137853;27;42347;-76
2023/04/28 03:51:23;;;;;;;4.10;3.70;;;;;;;12.21;54.43;98601.59;5137738;27;40857;-80
2023/04/28 03:53:51;;;;;;;4.53;3.90;;;;;;;12.15;54.71;98607.34;5137819;27;41693;-78
2023/04/28 03:56:19;;;;;;;5.57;5.00;;;;;;;12.11;56.45;98595.25;5120362;27;41934;-80
2023/04/28 03:58:48;;;;;;;4.57;3.90;;;;;;;12.04;56.62;98591.34;5120360;27;41498;-75
2023/04/28 04:01:18;;;;;;;6.33;4.43;;;;;;;11.99;56.74;98582.88;5137771;27;40725;-79
2023/04/28 04:03:45;;;;;;;4.47;4.07;;;;;;;11.95;57.12;98576.09;5120770;27;41006;-80
2023/04/28 04:06:13;;;;;;;4.43;3.93;;;;;;;11.93;57.26;98576.19;5120678;27;41616;-77
2023/04/28 04:08:43;;;;;;;4.33;3.93;;;;;;;11.94;58.33;98566.44;5137690;27;43205;-77
2023/04/28 04:11:11;;;;;;;6.47;4.67;;;;;;;11.92;59.31;98557.72;5086786;27;40004;-76
2023/04/28 04:13:39;;;;;;;6.30;4.57;;;;;;;11.91;59.84;98566.66;5137469;27;42646;-77
2023/04/28 04:16:14;;;;;;;5.57;4.47;;;;;;;11.65;59.49;98526.91;5119909;27;41934;-76
2023/04/28 04:18:42;;;;;;;5.63;4.30;;;;;;;11.87;59.43;98566.00;5118900;27;41205;-79
2023/04/28 04:21:19;;;;;;;5.37;3.77;;;;;;;11.88;59.52;98576.53;5120289;27;40038;-76
2023/04/28 04:23:48;;;;;;;4.33;3.93;;;;;;;11.87;60.06;98566.88;5120638;27;40732;-76
2023/04/28 04:26:16;;;;;;;5.80;4.93;;;;;;;11.80;59.90;98549.72;5146653;27;44072;-77
2023/04/28 04:28:44;;;;;;;4.50;4.10;;;;;;;11.84;60.41;98556.50;5144890;27;43456;-77
2023/04/28 04:31:17;;;;;;;4.43;4.03;;;;;;;11.86;60.46;98562.53;5136986;27;42059;-78
2023/04/28 04:33:44;;;;;;;5.17;4.33;;;;;;;11.76;60.71;98547.38;5137499;27;41094;-78
2023/04/28 04:36:13;;;;;;;5.30;4.60;;;;;;;11.74;60.37;98542.19;5119463;27;41420;-76
2023/04/28 04:38:41;;;;;;;4.63;4.07;;;;;;;11.78;60.82;98535.69;5119815;27;41452;-78
2023/04/28 04:41:15;;;;;;;5.93;4.80;;;;;;;11.88;61.82;98543.84;5119781;27;40023;-80
2023/04/28 04:43:44;;;;;;;5.30;4.70;;;;;;;11.88;62.31;98542.03;5119891;27;40730;-77
2023/04/28 04:46:13;;;;;;;7.83;4.70;;;;;;;11.93;62.75;98541.69;5136439;27;44005;-77
2023/04/28 04:48:41;;;;;;;8.10;5.67;;;;;;;11.95;63.34;98536.28;5136694;27;41156;-81
2023/04/28 04:51:09;;;;;;;7.80;6.23;;;;;;;11.96;65.08;98533.53;5137009;27;41627;-76
2023/04/28 04:53:37;;;;;;;7.60;6.50;;;;;;;11.99;63.90;98537.78;5119522;27;41698;-78
2023/04/28 04:56:06;;;;;;;7.73;5.73;;;;;;;11.89;63.73;98513.69;5136550;27;42809;-78
2023/04/28 04:58:35;;;;;;;7.83;5.63;;;;;;;12.08;63.37;98547.69;5137074;27;41886;-80
2023/04/28 05:01:31;;;;;;;6.93;5.23;;;;;;;12.01;63.75;98534.03;5150503;27;41042;-81
2023/04/28 05:03:59;;;;;;;5.73;5.20;;;;;;;12.03;65.06;98526.78;5119143;27;40810;-79
2023/04/28 05:06:27;;;;;;;6.73;5.17;;;;;;;12.00;64.79;98539.44;5135888;27;42660;-76
2023/04/28 05:08:57;;;;;;;7.50;5.83;;;;;;;11.98;64.63;98536.91;5136266;27;43060;-78
2023/04/28 05:11:25;;;;;;;5.83;5.23;;;;;;;12.03;65.24;98533.91;5136376;27;40686;-76
2023/04/28 05:13:53;;;;;;;6.87;5.70;;;;;;;12.06;66.63;98533.69;5119146;27;41772;-79
2023/04/28 05:16:21;;;;;;;7.00;5.97;;;;;;;11.95;66.98;98510.59;5118039;27;41807;-78
2023/04/28 05:19:17;;;;;;;6.33;5.73;;;;;;;12.00;68.66;98520.84;5150718;27;43024;-77
2023/04/28 05:21:46;;;;;;;6.93;6.23;;;;;;;11.98;70.18;98514.84;5118952;27;39931;-80
2023/04/28 05:24:14;;;;;;;8.60;6.87;;;;;;;11.96;70.29;98516.75;5119094;27;40680;-78
2023/04/28 05:26:42;;;;;;;10.97;7.20;;;;;;;11.96;70.56;98517.59;5135691;27;42099;-77
2023/04/28 05:29:11;;;;;;;7.37;6.43;;;;;;;12.01;68.97;98526.06;5119031;27;42075;-81
2023/04/28 05:31:39;;;;;;;7.87;6.30;;;;;;;11.95;68.92;98501.78;5135889;27;41723;-78
2023/04/28 05:34:07;;;;;;;7.13;5.27;;;;;;;12.17;68.18;98526.63;5136142;27;41610;-80
2023/04/28 05:36:37;;;;;;;6.00;5.50;;;;;;;12.24;67.92;98513.72;5118758;27;41878;-77
2023/04/28 05:39:07;;;;;;;5.23;4.70;;;;;;;12.22;67.76;98499.75;5118768;27;41675;-75
2023/04/28 05:41:36;;;;;;;8.07;5.87;;;;;;;12.49;67.33;98532.16;5135617;27;40992;-77
2023/04/28 05:44:04;;;;;;;5.70;5.20;;;;;;;12.51;67.46;98535.56;5135612;27;41788;-78
2023/04/28 05:46:32;;;;;;;6.03;5.30;;;;;;;12.50;67.31;98533.88;5118013;27;41733;-79
2023/04/28 05:49:01;;;;;;;6.60;6.00;;;;;;;12.51;67.40;98530.25;5118559;27;41482;-78
2023/04/28 05:51:37;;;;;;;5.70;4.87;;;;;;;12.62;67.86;98531.25;5118452;27;40206;-79
2023/04/28 05:54:05;;;;;;;6.87;5.80;;;;;;;12.62;68.41;98520.63;5118554;27;40819;-80
2023/04/28 05:56:39;;;;;;;6.97;5.77;;;;;;;12.68;68.56;98530.78;5118630;27;42132;-79
2023/04/28 05:59:09;;;;;;;7.70;6.47;;;;;;;12.76;68.77;98539.84;5135490;27;42186;-80
2023/04/28 06:01:37;;;;;;;6.03;5.43;;;;;;;12.82;68.86;98530.59;5101075;27;39810;-79
2023/04/28 06:04:06;;;;;;;7.77;6.17;;;;;;;12.68;68.44;98506.88;5135884;27;41776;-77
2023/04/28 06:06:34;;;;;;;8.57;6.10;;;;;;;12.91;68.75;98544.00;5135538;27;42906;-77
2023/04/28 06:09:04;;;;;;;6.77;6.07;;;;;;;12.93;68.34;98538.56;5118114;27;41453;-76
2023/04/28 06:11:34;;;;;;;6.27;5.23;;;;;;;12.86;68.47;98529.38;5117936;27;39939;-76
2023/04/28 06:14:02;;;;;;;7.03;5.90;;;;;;;12.93;68.71;98538.56;5118054;27;40443;-77
2023/04/28 06:16:29;;;;;;;7.70;6.77;;;;;;;12.88;70.00;98528.28;5117597;27;42392;-79
2023/04/28 06:18:58;;;;;;;7.87;6.97;;;;;;;12.86;69.90;98516.06;5117971;27;42062;-78
2023/04/28 06:21:27;;;;;;;6.87;6.17;;;;;;;12.88;69.59;98511.50;5118195;27;40782;-79
2023/04/28 06:23:55;;;;;;;8.50;6.60;;;;;;;12.89;69.71;98516.69;5118009;27;41895;-78
2023/04/28 06:26:25;;;;;;;7.63;6.83;;;;;;;12.89;70.42;98519.34;5117823;27;42795;-76
2023/04/28 06:28:52;;;;;;;6.93;6.30;;;;;;;12.88;70.47;98516.81;5134973;27;43260;-79
2023/04/28 06:31:20;;;;;;;7.50;6.80;;;;;;;12.87;71.03;98515.13;5117550;27;40183;-77
2023/04/28 06:33:48;;;;;;;6.67;6.00;;;;;;;12.91;70.86;98517.44;5135886;27;41790;-76
2023/04/28 06:36:16;;;;;;;7.07;6.37;;;;;;;12.86;71.37;98500.97;5142962;27;42608;-76
2023/04/28 06:38:45;;;;;;;8.10;6.93;;;;;;;12.92;72.22;98507.66;5158455;27;42634;-77
2023/04/28 06:41:13;;;;;;;7.93;7.13;;;;;;;13.01;72.78;98511.38;5135554;27;41839;-79
2023/04/28 06:43:44;;;;;;;7.23;6.53;;;;;;;13.01;73.29;98520.22;5138217;27;42183;-75
2023/04/28 06:46:21;;;;;;;7.57;6.77;;;;;;;12.99;74.11;98519.47;5136897;27;43655;-77
2023/04/28 06:48:49;;;;;;;7.50;6.80;;;;;;;12.97;74.77;98529.41;5138182;27;41592;-78
2023/04/28 06:51:17;;;;;;;7.67;6.87;;;;;;;12.80;74.21;98508.59;5121288;27;41284;-77
2023/04/28 06:53:45;;;;;;;8.60;6.17;;;;;;;12.97;74.05;98536.53;5138379;27;42011;-78
2023/04/28 06:56:14;;;;;;;10.40;8.63;;;;;;;12.95;73.65;98549.94;5121558;27;42134;-78
2023/04/28 06:58:41;;;;;;;7.53;6.67;;;;;;;12.97;73.83;98547.16;5138160;27;42971;-76
2023/04/28 07:01:11;;;;;;;9.67;7.80;;;;;;;12.95;73.13;98549.94;5121405;27;39958;-79
2023/04/28 07:03:39;;;;;;;8.40;6.17;;;;;;;12.93;73.32;98541.22;5156628;27;41868;-76
2023/04/28 07:06:10;;;;;;;7.60;6.90;;;;;;;12.91;74.06;98545.81;5120848;27;41302;-81
2023/04/28 07:08:38;;;;;;;7.90;6.83;;;;;;;12.88;74.48;98543.38;5138138;27;42474;-79
2023/04/28 07:11:06;;;;;;;7.37;6.63;;;;;;;12.81;75.71;98542.19;5138217;27;42067;-80
2023/04/28 07:13:37;;;;;;;9.83;6.93;;;;;;;12.76;75.40;98552.28;5137666;27;40463;-77
2023/04/28 07:16:05;;;;;;;8.47;6.93;;;;;;;12.64;75.92;98534.63;5120272;27;41426;-78
2023/04/28 07:18:35;;;;;;;8.20;7.00;;;;;;;12.69;75.59;98551.09;5138072;27;20978;-79
2023/04/28 07:21:04;;;;;;;9.33;7.33;;;;;;;12.54;75.67;98534.50;5120364;27;40048;-80
2023/04/28 07:23:32;;;;;;;9.23;8.33;;;;;;;12.73;75.51;98565.84;5137660;27;40960;-81
2023/04/28 07:26:00;;;;;;;7.87;7.10;;;;;;;12.78;75.71;98564.50;5121253;27;42896;-80
2023/04/28 07:28:28;;;;;;;8.37;7.43;;;;;;;12.75;75.78;98538.16;5156304;27;43243;-80
2023/04/28 07:30:56;;;;;;;9.20;7.80;;;;;;;12.90;77.17;98541.47;5120342;27;40711;-79
2023/04/28 07:33:24;;;;;;;8.37;7.40;;;;;;;12.94;76.96;98537.63;5120985;27;40497;-81
2023/04/28 07:35:55;;;;;;;8.40;6.80;;;;;;;13.00;77.04;98534.47;5137448;27;42935;-79
2023/04/28 07:38:23;;;;;;;7.33;6.53;;;;;;;13.09;77.37;98527.63;5137650;27;42243;-79
2023/04/28 07:40:51;;;;;;;7.97;7.23;;;;;;;13.16;77.67;98532.34;5120468;27;39921;-80
2023/04/28 07:43:18;;;;;;;8.40;7.60;;;;;;;13.17;78.50;98539.38;5120664;27;40431;-81
2023/04/28 07:45:47;;;;;;;10.13;9.13;;;;;;;13.11;78.87;98528.31;5137487;27;41466;-81
2023/04/28 07:48:16;;;;;;;9.60;7.87;;;;;;;13.05;78.67;98516.34;5156064;27;43150;-79
2023/04/28 07:50:44;;;;;;;9.10;7.90;;;;;;;13.15;78.92;98529.81;5156450;27;41397;-82
2023/04/28 07:53:13;;;;;;;8.43;7.50;;;;;;;13.20;78.26;98533.81;5120106;27;40918;-81
2023/04/28 07:55:43;;;;;;;8.50;7.60;;;;;;;13.20;78.97;98549.78;5137097;27;41622;-82
2023/04/28 07:58:11;;;;;;;8.63;7.77;;;;;;;13.23;79.07;98554.81;5119936;27;42307;-81
2023/04/28 08:00:38;;;;;;;8.37;7.47;;;;;;;13.25;78.80;98552.03;5120196;27;39939;-80
2023/04/28 08:03:06;;;;;;;8.37;7.20;;;;;;;13.26;78.69;98533.31;5120230;27;40947;-84
2023/04/28 08:05:34;;;;;;;8.53;7.27;;;;;;;13.32;78.89;98515.19;5120341;27;41581;-81
2023/04/28 08:08:02;;;;;;;9.83;7.73;;;;;;;13.46;79.00;98536.22;5155797;27;43133;-81
2023/04/28 08:10:32;;;;;;;7.37;6.67;;;;;;;13.46;78.89;98545.06;5119920;27;39872;-83
2023/04/28 08:12:59;;;;;;;10.57;7.30;;;;;;;13.42;78.71;98524.97;5136998;27;41541;-80
2023/04/28 08:15:27;;;;;;;8.70;7.47;;;;;;;13.44;78.81;98524.88;5119536;27;41645;-80
2023/04/28 08:17:55;;;;;;;8.57;7.50;;;;;;;13.43;78.93;98523.16;5136912;27;42550;-82
2023/04/28 08:20:23;;;;;;;7.43;6.73;;;;;;;13.47;79.06;98529.94;5137082;27;40128;-80
2023/04/28 08:22:51;;;;;;;8.43;7.60;;;;;;;13.29;78.61;98501.16;5120104;27;41313;-82
2023/04/28 08:25:19;;;;;;;9.20;7.63;;;;;;;13.61;78.35;98543.81;5137128;27;42846;-80
2023/04/28 08:27:48;;;;;;;8.97;7.90;;;;;;;13.68;78.75;98540.69;5119951;27;42156;-83
2023/04/28 08:30:16;;;;;;;7.60;6.77;;;;;;;13.75;78.78;98534.72;5119480;27;39739;-80
2023/04/28 08:32:44;;;;;;;7.83;7.00;;;;;;;13.84;78.49;98525.19;5137108;27;41623;-84
2023/04/28 08:35:14;;;;;;;9.63;8.27;;;;;;;13.93;78.63;98522.63;5119340;27;42914;-83
2023/04/28 08:37:42;;;;;;;10.40;8.20;;;;;;;13.91;79.03;98502.41;5136845;27;42273;-83
2023/04/28 08:40:10;;;;;;;8.33;6.90;;;;;;;14.28;78.37;98537.50;5119554;27;40305;-83
2023/04/28 08:42:38;;;;;;;9.80;8.43;;;;;;;14.15;78.32;98510.19;5137040;27;41879;-81
2023/04/28 08:45:13;;;;;;;8.90;7.83;;;;;;;14.24;77.94;98541.38;5136621;27;41700;-81
2023/04/28 08:47:44;;;;;;;7.87;6.97;;;;;;;14.20;78.15;98534.63;5119434;27;42588;-81
2023/04/28 08:50:14;;;;;;;7.83;6.97;;;;;;;14.22;78.55;98533.50;5133519;27;40960;-82
2023/04/28 08:52:42;;;;;;;9.00;8.03;;;;;;;14.23;78.43;98523.72;5119383;27;41708;-81
2023/04/28 08:55:14;;;;;;;8.93;7.73;;;;;;;14.20;78.24;98508.00;5136303;27;41977;-82
2023/04/28 08:57:44;;;;;;;10.40;7.90;;;;;;;14.27;77.64;98531.34;5136674;27;41082;-81
2023/04/28 09:00:14;;;;;;;11.47;8.60;;;;;;;14.30;78.17;98525.75;5136292;27;39928;-82
2023/04/28 09:02:42;;;;;;;9.07;8.10;;;;;;;14.41;78.59;98497.41;5119093;27;40643;-82
2023/04/28 09:05:12;;;;;;;8.80;7.87;;;;;;;14.47;78.29;98468.41;5135770;27;42862;-82
2023/04/28 09:07:40;;;;;;;9.23;8.10;;;;;;;14.62;78.34;98483.09;5136347;27;41291;-79
2023/04/28 09:10:19;;;;;;;7.93;7.23;;;;;;;14.56;78.15;98483.66;5136572;27;41375;-83
2023/04/28 09:12:47;;;;;;;9.50;8.57;;;;;;;14.53;78.56;98494.56;5136455;27;41759;-81
2023/04/28 09:15:35;;;;;;;9.03;8.10;;;;;;;14.57;78.47;98505.81;5118648;27;41865;-81
2023/04/28 09:18:04;;;;;;;9.47;8.50;;;;;;;14.47;78.88;98478.22;5134398;27;42195;-79
2023/04/28 09:20:33;;;;;;;10.33;8.23;;;;;;;14.65;78.98;98509.50;5135998;27;41496;-80
2023/04/28 09:23:16;;;;;;;11.93;9.30;;;;;;;14.68;78.78;98498.59;5136220;27;41801;-81
2023/04/28 09:25:58;;;;;;;9.10;7.83;;;;;;;14.58;78.98;98473.72;5133711;27;42914;-80
2023/04/28 09:28:27;;;;;;;9.30;8.40;;;;;;;14.58;78.60;98487.03;5136149;27;41453;-81
2023/04/28 09:30:56;;;;;;;9.90;8.90;;;;;;;14.62;78.28;98515.09;5136177;27;39941;-82
2023/04/28 09:33:25;;;;;;;8.67;7.83;;;;;;;14.54;78.44;98501.56;5154654;27;41800;-81
2023/04/28 09:36:26;;;;;;;10.83;9.80;;;;;;;14.55;78.70;98503.28;5119160;27;41539;-82
2023/04/28 09:38:57;;;;;;;8.90;8.00;;;;;;;14.43;78.66;98493.66;5135781;27;41755;-82
2023/04/28 09:41:36;;;;;;;9.70;8.73;;;;;;;14.50;79.15;98509.94;5153055;27;40982;-80
2023/04/28 09:44:14;;;;;;;8.87;7.90;;;;;;;14.36;78.92;98481.75;5118908;27;40737;-83
2023/04/28 09:46:57;;;;;;;8.70;7.90;;;;;;;14.49;78.81;98503.78;5135813;27;41673;-84
2023/04/28 09:49:25;;;;;;;9.30;7.77;;;;;;;14.59;78.50;98507.34;5119001;27;41076;-81
2023/04/28 09:52:15;;;;;;;8.43;7.70;;;;;;;14.51;78.43;98458.34;5120091;27;41073;-81
2023/04/28 09:54:43;;;;;;;8.63;7.60;;;;;;;14.74;78.40;98489.22;5118549;27;40505;-80
2023/04/28 09:57:11;;;;;;;8.60;7.67;;;;;;;14.89;77.84;98490.56;5135492;27;43627;-81
2023/04/28 09:59:39;;;;;;;8.93;8.03;;;;;;;14.98;77.57;98494.25;5118878;27;42381;-81
2023/04/28 10:02:09;;;;;;;8.67;7.87;;;;;;;15.06;77.33;98505.13;5118762;27;41058;-82
2023/04/28 10:04:37;;;;;;;8.07;7.27;;;;;;;15.10;77.06;98510.06;5136170;27;40518;-83
2023/04/28 10:07:04;;;;;;;8.43;7.63;;;;;;;15.15;77.08;98501.66;5118586;27;41832;-81
2023/04/28 10:09:34;;;;;;;8.93;7.83;;;;;;;15.20;76.89;98501.28;5135378;27;41132;-83
2023/04/28 10:12:02;;;;;;;10.33;8.30;;;;;;;15.30;76.83;98488.81;5118182;27;40178;-82
2023/04/28 10:14:32;;;;;;;12.07;9.67;;;;;;;15.46;76.45;98500.66;5135554;27;41741;-80
2023/04/28 10:17:02;;;;;;;9.13;8.07;;;;;;;15.56;76.22;98495.41;5136556;27;43598;-82
2023/04/28 10:19:31;;;;;;;11.20;8.10;;;;;;;15.73;76.40;98491.22;5136420;27;42329;-80
2023/04/28 10:22:31;;;;;;;9.83;8.83;;;;;;;15.87;76.61;98498.00;5122449;27;40662;-84
2023/04/28 10:25:17;;;;;;;9.57;8.57;;;;;;;15.94;76.59;98500.00;5136324;27;42709;-81
2023/04/28 10:27:47;;;;;;;9.60;8.60;;;;;;;15.84;76.41;98488.41;5136268;27;42886;-82
2023/04/28 10:30:16;;;;;;;10.83;9.73;;;;;;;15.93;75.75;98495.63;5138943;27;41219;-83
2023/04/28 10:32:45;;;;;;;9.03;8.20;;;;;;;15.98;75.87;98496.03;5139244;27;39802;-82
2023/04/28 10:35:46;;;;;;;8.93;8.13;;;;;;;16.03;75.82;98483.13;5138758;27;42766;-81
2023/04/28 10:38:14;;;;;;;10.33;8.53;;;;;;;16.20;75.18;98494.09;5122554;27;41541;-81
2023/04/28 10:40:43;;;;;;;9.10;8.30;;;;;;;16.31;75.04;98491.31;5121417;27;42293;-82
2023/04/28 10:43:12;;;;;;;10.37;9.33;;;;;;;16.38;74.71;98489.75;5138858;27;42265;-81
2023/04/28 10:46:13;;;;;;;9.57;8.57;;;;;;;16.41;74.62;98487.63;5121342;27;41617;-81
2023/04/28 10:48:55;;;;;;;9.67;8.67;;;;;;;16.47;74.87;98486.22;5154016;27;43596;-81
2023/04/28 10:51:32;;;;;;;9.13;8.33;;;;;;;16.58;74.47;98478.03;5121822;27;42685;-82
2023/04/28 10:54:24;;;;;;;8.97;8.07;;;;;;;16.69;74.44;98480.59;5121921;27;41182;-81
2023/04/28 10:57:20;;;;;;;8.93;8.03;;;;;;;16.95;74.00;98479.97;5156803;27;42769;-80
2023/04/28 10:59:49;;;;;;;9.57;7.43;;;;;;;17.07;73.27;98489.50;5135260;27;42936;-81
2023/04/28 11:02:39;;;;;;;10.33;8.63;;;;;;;17.16;74.52;98488.66;5138078;27;42344;-82
2023/04/28 11:05:12;;;;;;;9.33;8.37;;;;;;;17.18;73.92;98492.03;5121326;27;41102;-81
2023/04/28 11:07:41;;;;;;;9.40;8.50;;;;;;;17.20;72.92;98492.69;5153604;27;41860;-81
2023/04/28 11:10:08;;;;;;;10.07;8.73;;;;;;;17.12;72.82;98481.91;5121058;27;42874;-82
2023/04/28 11:12:36;;;;;;;8.43;7.57;;;;;;;17.19;72.69;98485.66;5121272;27;41316;-81
2023/04/28 11:15:13;;;;;;;9.43;8.50;;;;;;;17.26;72.93;98481.41;5121334;27;40641;-82
2023/04/28 11:17:42;;;;;;;9.70;8.80;;;;;;;17.29;73.21;98465.06;5120759;27;40839;-80
2023/04/28 11:20:13;;;;;;;9.23;8.40;;;;;;;17.49;72.82;98472.03;5120740;27;42883;-82
2023/04/28 11:22:42;;;;;;;9.63;8.80;;;;;;;17.74;71.99;98493.75;5135343;27;42202;-79
2023/04/28 11:25:10;;;;;;;10.77;8.70;;;;;;;18.00;71.01;98473.28;5120267;27;39936;-83
2023/04/28 11:27:37;;;;;;;10.47;9.33;;;;;;;18.40;70.15;98490.78;5156123;27;41747;-82
2023/04/28 11:30:21;;;;;;;8.33;6.97;;;;;;;18.62;69.97;98485.78;5137931;27;42968;-80
2023/04/28 11:32:51;;;;;;;9.40;8.60;;;;;;;19.02;68.78;98482.56;5120798;27;41345;-82
2023/04/28 11:35:18;;;;;;;8.87;7.30;;;;;;;19.60;66.64;98486.41;5156629;27;40737;-81
2023/04/28 11:38:02;;;;;;;8.67;7.87;;;;;;;20.31;65.13;98496.66;5138099;27;41628;-82
2023/04/28 11:40:30;;;;;;;7.77;7.13;;;;;;;20.59;65.00;98499.94;5120478;27;41992;-81
2023/04/28 11:42:59;;;;;;;8.27;7.47;;;;;;;20.95;63.14;98501.25;5156444;27;42492;-81
2023/04/28 11:45:27;;;;;;;8.47;7.57;;;;;;;21.23;62.01;98499.06;5137458;27;41105;-81
2023/04/28 11:47:55;;;;;;;7.70;7.00;;;;;;;21.50;61.13;98487.03;5137816;27;41760;-80
2023/04/28 11:50:35;;;;;;;8.77;7.87;;;;;;;21.72;60.23;98499.75;5119912;27;41627;-81